Terminal Aerodrome Forecast
Issued by NWS Pittsburgh, PA

Current Version | Previous Version | Text Only | Print | Product List | Glossary Off
Versions: 1 2 3 4 5 6 7 8 9 10 11 12 13 14 15 16 17 18 19 20 21 22 23 24 25 26 27

000
FTUS41 KPBZ 200756 AAA
TAFPIT
TAF AMD
KPIT 200756Z 2008/2112 31008KT P6SM SCT025 OVC035
      TEMPO 2008/2010 BKN025
     FM201400 32010KT P6SM BKN150=

USA.gov is the U.S. government's official web portal to all federal, state and local government web resources and services.